首页
METAR-TAF:

METAR-TAF

机场 :

Skagway, 阿拉斯加州, 美国

纬度: 59-28N, 经度: 135-18W, 海拔: 16米

当前天气观测

该预报发布于1小时和7分钟前的17:53 UTC
风速11节,风向北转东北,有时为22节阵风
温度 -6°C
湿度 35%
气压 1007 hPa
能見度: 16.1公里
多云层高于7000英尺
阴天层高于8000英尺

METAR: PAGY 281753Z AUTO 03011G22KT 10SM BKN070 OVC080 M06/M19 A2975 RMK AO2 SLP073 T10561189 11056 21061 58006 TSNO

时间: 11:00 (19:00 UTC)

预报

该预报发布于1小时和40分钟前的17:20 UTC
预报有效从28日的 18点(UTC)到 29日的 18点(UTC)
风速12节,风向北转东北,有时为22节阵风
能見度: 10公里
多云层高于7000英尺
阴天层高于10000英尺
从 28日的 2000点(UTC)
风速20节,风向北转东北,有时为30节阵风
能見度: 10公里
多云层高于10000英尺

TAF: PAGY 281720Z 2818/2918 03012G22KT P6SM BKN070 OVC100 FM282000 03020G30KT P6SM BKN100 AMD LTD TO CLD VIS AND WIND

超过4000个机场的气象观测和天气预报(METAR&TAF报告)。

可查询的气象台以黄色和红色小点在地图上表示。

将鼠标移到小点上方,可查看气象台名称。

然后点击查看天气观测和预报。

如需切换地图:点击带黑十字的绿色按钮放大地图;点击带横线的绿色按钮缩小地图;或者点击绿色箭头查看邻近地区的地图。


METAR-TAF: